Pacific Baron — VD4360 — position and weather

sailwx.info

Track history (hours):
 
Tides and Currents Weather Stations Pressure Air Temp Water Temp Dewpoint Dewpoint Depression Visibility Wind Speed Wind Dir Waves Ship Positions

Pacific Baron

Last reported at 2017-Oct-28 19:00 UTC. Time now 2017-Dec-13 01:28 UTC.
Position N 49°53' W 125°05'.
Warning: this ship's position is 45 days out of date.

Length 18 m.

Type: Fishing. MMSI: 316007088.

Date/timePositionNaut miles runAvg speedWind from/ knotsBaromVisibWave heightAir tempDewpointWater temp
2017-Oct-28 19:00N 49°53' W 125°05'6 8.1
2017-Oct-28 18:13N 49°58' W 125°10'2 9.8
2017-Oct-28 18:00N 49°60' W 125°12'3 6.1
2017-Oct-28 17:29N 50°02' W 125°15'2 4.8
2017-Oct-28 17:00N 50°04' W 125°16'2 0.3
2017-Oct-28 09:29N 50°07' W 125°18'5 9.8
2017-Oct-28 09:00N 50°03' W 125°14'510.1
2017-Oct-28 08:29N 49°58' W 125°10'4 8.6
2017-Oct-28 07:59N 49°55' W 125°05'4 8.6
2017-Oct-28 07:29N 49°52' W 125°01'4 8.8
2017-Oct-28 07:00N 49°48' W 124°57'4 8.5
2017-Oct-28 06:30N 49°45' W 124°52'4 8.0
2017-Oct-28 05:59N 49°41' W 124°50'4 3.4
2017-Oct-28 04:49N 49°40' W 124°56'0 0.0
2017-Oct-27 16:53N 49°40' W 124°55'2 1.0
2017-Oct-27 14:26N 49°39' W 124°52'2 0.6
2017-Oct-27 11:26N 49°41' W 124°52'0 0.0
2017-Oct-27 04:35N 49°41' W 124°52'0 0.0
2017-Oct-27 04:17N 49°41' W 124°52'2 0.6
2017-Oct-27 01:32N 49°43' W 124°51'4 8.2
2017-Oct-27 01:04N 49°46' W 124°54'1 8.1
2017-Oct-27 00:54N 49°47' W 124°56'4 7.9
2017-Oct-27 00:26N 49°49' W 124°60'4 7.7
2017-Oct-26 23:55N 49°53' W 125°04'3 7.3
2017-Oct-26 23:27N 49°55' W 125°07'4 7.3
2017-Oct-26 22:56N 49°58' W 125°11'3 6.5
2017-Oct-26 22:25N 50°01' W 125°13'2 3.8
2017-Oct-26 22:00N 50°02' W 125°15'4 7.9
2017-Oct-26 21:30N 50°06' W 125°17'1 0.3
2017-Oct-26 17:59N 50°07' W 125°18'3 6.4
2017-Oct-26 17:28N 50°10' W 125°20'0 0.5
2017-Oct-26 16:59N 50°10' W 125°20'0 0.0
2017-Oct-26 16:29N 50°10' W 125°20'0 0.0
2017-Oct-26 15:59N 50°10' W 125°20'0 0.0
2017-Oct-26 15:23N 50°10' W 125°20'0 0.0
2017-Oct-26 14:59N 50°10' W 125°20'0 0.0
2017-Oct-26 14:26N 50°10' W 125°20'0 0.0
2017-Oct-26 13:44N 50°10' W 125°20'0 0.0
2017-Oct-26 13:26N 50°10' W 125°20'0 0.0
2017-Oct-26 12:56N 50°10' W 125°20'0 0.0
2017-Oct-26 12:26N 50°10' W 125°20'0 0.0
2017-Oct-26 11:59N 50°10' W 125°20'0 0.0
2017-Oct-26 11:29N 50°10' W 125°20'0 0.0
2017-Oct-26 10:56N 50°10' W 125°20'0 0.0
2017-Oct-26 10:29N 50°10' W 125°20'0 0.0
2017-Oct-26 09:59N 50°10' W 125°20'0 0.0
2017-Oct-26 09:26N 50°10' W 125°20'0 0.0
2017-Oct-26 08:50N 50°10' W 125°20'0 0.0
2017-Oct-26 08:29N 50°10' W 125°20'0 0.9
2017-Oct-26 08:00N 50°10' W 125°21'3 6.0
2017-Oct-26 07:30N 50°13' W 125°23'2 3.9
2017-Oct-26 06:59N 50°15' W 125°24'1 1.1
2017-Oct-26 06:19N 50°15' W 125°24'3 6.2
2017-Oct-26 05:51N 50°13' W 125°23'3 8.0
2017-Oct-26 05:29N 50°10' W 125°20'0 0.0
2017-Oct-26 04:59N 50°10' W 125°20'0 0.0
2017-Oct-26 04:02N 50°10' W 125°20'0 0.0
2017-Oct-26 03:53N 50°10' W 125°20'0 0.0
2017-Oct-26 02:38N 50°10' W 125°20'0 0.0
2017-Oct-26 02:20N 50°10' W 125°20'0 0.0
2017-Oct-26 01:53N 50°10' W 125°20'1 2.9
2017-Oct-26 01:30N 50°09' W 125°21'3 5.6
2017-Oct-26 01:00N 50°07' W 125°18'0 0.1
2017-Oct-25 23:35N 50°07' W 125°18'1 9.0
2017-Oct-25 23:30N 50°07' W 125°19'4 7.4
2017-Oct-25 23:00N 50°11' W 125°21'0 0.4
2017-Oct-25 22:07N 50°11' W 125°21'1 6.0
2017-Oct-25 22:00N 50°11' W 125°21'3 4.9
2017-Oct-25 21:18N 50°15' W 125°21'1 1.8
2017-Oct-25 20:50N 50°15' W 125°19'2 6.8
2017-Oct-25 20:30N 50°16' W 125°22'3 5.5
2017-Oct-25 19:58N 50°19' W 125°25'0 0.3
2017-Oct-25 19:13N 50°19' W 125°25'2 8.4
2017-Oct-25 19:00N 50°17' W 125°24'2 0.1
2017-Oct-25 00:13N 50°15' W 125°22'0 0.9
2017-Oct-24 23:51N 50°15' W 125°22'1 3.6
2017-Oct-24 23:26N 50°16' W 125°24'1 3.1
2017-Oct-24 22:58N 50°15' W 125°23'4 8.4
2017-Oct-24 22:26N 50°10' W 125°22'4 9.2
2017-Oct-24 22:00N 50°07' W 125°19'5 9.9
2017-Oct-24 21:30N 50°03' W 125°15'0 0.7
2017-Oct-24 20:51N 50°02' W 125°15'0 0.2
2017-Oct-24 20:30N 50°02' W 125°15'0 0.1
2017-Oct-24 19:28N 50°02' W 125°15'0 0.0
2017-Oct-24 18:55N 50°02' W 125°15'0 0.0
2017-Oct-24 18:28N 50°02' W 125°15'0 0.0
2017-Oct-24 17:34N 50°02' W 125°15'0 0.0
2017-Oct-24 17:10N 50°02' W 125°15'0 0.0
2017-Oct-24 15:55N 50°02' W 125°15'0 0.1
2017-Oct-24 15:30N 50°02' W 125°15'0 0.0
2017-Oct-24 14:57N 50°02' W 125°15'0 0.0
2017-Oct-24 14:30N 50°02' W 125°15'0 0.1
2017-Oct-24 13:56N 50°02' W 125°15'0 0.0
2017-Oct-24 13:26N 50°02' W 125°15'0 0.0
2017-Oct-24 12:50N 50°02' W 125°15'0 0.0
2017-Oct-24 12:26N 50°02' W 125°15'0 0.0
2017-Oct-24 11:56N 50°02' W 125°15'0 0.0
2017-Oct-24 11:20N 50°02' W 125°15'0 0.0
2017-Oct-24 10:50N 50°02' W 125°15'0 0.0
2017-Oct-24 10:26N 50°02' W 125°15'0 0.0
2017-Oct-24 09:23N 50°02' W 125°15'0 0.0
2017-Oct-24 08:59N 50°02' W 125°15'0 0.0
2017-Oct-24 08:23N 50°02' W 125°15'0 0.0
2017-Oct-24 07:53N 50°02' W 125°15'0 0.0
2017-Oct-24 07:29N 50°02' W 125°15'0 0.0
2017-Oct-24 06:59N 50°02' W 125°15'0 0.0
2017-Oct-24 06:08N 50°02' W 125°15'0 0.0
2017-Oct-24 05:38N 50°02' W 125°15'0 0.0
2017-Oct-24 04:41N 50°02' W 125°15'0 0.0
2017-Oct-24 04:26N 50°02' W 125°15'0 0.0
2017-Oct-24 03:17N 50°02' W 125°15'0 0.0
2017-Oct-24 02:53N 50°02' W 125°15'0 0.0
2017-Oct-24 02:26N 50°02' W 125°15'0 0.0
2017-Oct-24 01:59N 50°02' W 125°15'0 0.0
2017-Oct-24 01:26N 50°02' W 125°15'0 0.0
2017-Oct-23 23:02N 50°02' W 125°15'0 0.0
2017-Oct-23 22:56N 50°02' W 125°15'0 0.0
2017-Oct-23 22:29N 50°02' W 125°15'0 0.0
2017-Oct-23 21:50N 50°02' W 125°15'0 0.0
2017-Oct-23 21:23N 50°02' W 125°15'0 0.0
2017-Oct-23 20:56N 50°02' W 125°15'0 0.0
2017-Oct-23 20:11N 50°02' W 125°15'0 0.0
2017-Oct-23 19:56N 50°02' W 125°15'0 0.0
2017-Oct-23 19:26N 50°02' W 125°15'0 0.0
2017-Oct-23 18:29N 50°02' W 125°15'0 0.2
2017-Oct-23 18:00N 50°02' W 125°15'3 6.8
2017-Oct-23 17:31N 50°05' W 125°17'1 1.3
2017-Oct-23 16:23N 50°07' W 125°17'  
Track history (hours):
 
Tides and Currents Weather Stations Pressure Air Temp Water Temp Dewpoint Dewpoint Depression Visibility Wind Speed Wind Dir Waves Ship Positions

Pacific Baron

Last reported at 2017-Oct-28 19:00 UTC. Time now 2017-Dec-13 01:28 UTC.
Position N 49°53' W 125°05'.
Warning: this ship's position is 45 days out of date.

Length 18 m.

Type: Fishing. MMSI: 316007088.

Date/timePositionNaut miles runAvg speedWind from/ knotsBaromVisibWave heightAir tempDewpointWater temp
2017-Oct-28 19:00N 49°53' W 125°05'6 8.1
2017-Oct-28 18:13N 49°58' W 125°10'2 9.8
2017-Oct-28 18:00N 49°60' W 125°12'3 6.1
2017-Oct-28 17:29N 50°02' W 125°15'2 4.8
2017-Oct-28 17:00N 50°04' W 125°16'2 0.3
2017-Oct-28 09:29N 50°07' W 125°18'5 9.8
2017-Oct-28 09:00N 50°03' W 125°14'510.1
2017-Oct-28 08:29N 49°58' W 125°10'4 8.6
2017-Oct-28 07:59N 49°55' W 125°05'4 8.6
2017-Oct-28 07:29N 49°52' W 125°01'4 8.8
2017-Oct-28 07:00N 49°48' W 124°57'4 8.5
2017-Oct-28 06:30N 49°45' W 124°52'4 8.0
2017-Oct-28 05:59N 49°41' W 124°50'4 3.4
2017-Oct-28 04:49N 49°40' W 124°56'0 0.0
2017-Oct-27 16:53N 49°40' W 124°55'2 1.0
2017-Oct-27 14:26N 49°39' W 124°52'2 0.6
2017-Oct-27 11:26N 49°41' W 124°52'0 0.0
2017-Oct-27 04:35N 49°41' W 124°52'0 0.0
2017-Oct-27 04:17N 49°41' W 124°52'2 0.6
2017-Oct-27 01:32N 49°43' W 124°51'4 8.2
2017-Oct-27 01:04N 49°46' W 124°54'1 8.1
2017-Oct-27 00:54N 49°47' W 124°56'4 7.9
2017-Oct-27 00:26N 49°49' W 124°60'4 7.7
2017-Oct-26 23:55N 49°53' W 125°04'3 7.3
2017-Oct-26 23:27N 49°55' W 125°07'4 7.3
2017-Oct-26 22:56N 49°58' W 125°11'3 6.5
2017-Oct-26 22:25N 50°01' W 125°13'2 3.8
2017-Oct-26 22:00N 50°02' W 125°15'4 7.9
2017-Oct-26 21:30N 50°06' W 125°17'1 0.3
2017-Oct-26 17:59N 50°07' W 125°18'3 6.4
2017-Oct-26 17:28N 50°10' W 125°20'0 0.5
2017-Oct-26 16:59N 50°10' W 125°20'0 0.0
2017-Oct-26 16:29N 50°10' W 125°20'0 0.0
2017-Oct-26 15:59N 50°10' W 125°20'0 0.0
2017-Oct-26 15:23N 50°10' W 125°20'0 0.0
2017-Oct-26 14:59N 50°10' W 125°20'0 0.0
2017-Oct-26 14:26N 50°10' W 125°20'0 0.0
2017-Oct-26 13:44N 50°10' W 125°20'0 0.0
2017-Oct-26 13:26N 50°10' W 125°20'0 0.0
2017-Oct-26 12:56N 50°10' W 125°20'0 0.0
2017-Oct-26 12:26N 50°10' W 125°20'0 0.0
2017-Oct-26 11:59N 50°10' W 125°20'0 0.0
2017-Oct-26 11:29N 50°10' W 125°20'0 0.0
2017-Oct-26 10:56N 50°10' W 125°20'0 0.0
2017-Oct-26 10:29N 50°10' W 125°20'0 0.0
2017-Oct-26 09:59N 50°10' W 125°20'0 0.0
2017-Oct-26 09:26N 50°10' W 125°20'0 0.0
2017-Oct-26 08:50N 50°10' W 125°20'0 0.0
2017-Oct-26 08:29N 50°10' W 125°20'0 0.9
2017-Oct-26 08:00N 50°10' W 125°21'3 6.0
2017-Oct-26 07:30N 50°13' W 125°23'2 3.9
2017-Oct-26 06:59N 50°15' W 125°24'1 1.1
2017-Oct-26 06:19N 50°15' W 125°24'3 6.2
2017-Oct-26 05:51N 50°13' W 125°23'3 8.0
2017-Oct-26 05:29N 50°10' W 125°20'0 0.0
2017-Oct-26 04:59N 50°10' W 125°20'0 0.0
2017-Oct-26 04:02N 50°10' W 125°20'0 0.0
2017-Oct-26 03:53N 50°10' W 125°20'0 0.0
2017-Oct-26 02:38N 50°10' W 125°20'0 0.0
2017-Oct-26 02:20N 50°10' W 125°20'0 0.0
2017-Oct-26 01:53N 50°10' W 125°20'1 2.9
2017-Oct-26 01:30N 50°09' W 125°21'3 5.6
2017-Oct-26 01:00N 50°07' W 125°18'0 0.1
2017-Oct-25 23:35N 50°07' W 125°18'1 9.0
2017-Oct-25 23:30N 50°07' W 125°19'4 7.4
2017-Oct-25 23:00N 50°11' W 125°21'0 0.4
2017-Oct-25 22:07N 50°11' W 125°21'1 6.0
2017-Oct-25 22:00N 50°11' W 125°21'3 4.9
2017-Oct-25 21:18N 50°15' W 125°21'1 1.8
2017-Oct-25 20:50N 50°15' W 125°19'2 6.8
2017-Oct-25 20:30N 50°16' W 125°22'3 5.5
2017-Oct-25 19:58N 50°19' W 125°25'0 0.3
2017-Oct-25 19:13N 50°19' W 125°25'2 8.4
2017-Oct-25 19:00N 50°17' W 125°24'2 0.1
2017-Oct-25 00:13N 50°15' W 125°22'0 0.9
2017-Oct-24 23:51N 50°15' W 125°22'1 3.6
2017-Oct-24 23:26N 50°16' W 125°24'1 3.1
2017-Oct-24 22:58N 50°15' W 125°23'4 8.4
2017-Oct-24 22:26N 50°10' W 125°22'4 9.2
2017-Oct-24 22:00N 50°07' W 125°19'5 9.9
2017-Oct-24 21:30N 50°03' W 125°15'0 0.7
2017-Oct-24 20:51N 50°02' W 125°15'0 0.2
2017-Oct-24 20:30N 50°02' W 125°15'0 0.1
2017-Oct-24 19:28N 50°02' W 125°15'0 0.0
2017-Oct-24 18:55N 50°02' W 125°15'0 0.0
2017-Oct-24 18:28N 50°02' W 125°15'0 0.0
2017-Oct-24 17:34N 50°02' W 125°15'0 0.0
2017-Oct-24 17:10N 50°02' W 125°15'0 0.0
2017-Oct-24 15:55N 50°02' W 125°15'0 0.1
2017-Oct-24 15:30N 50°02' W 125°15'0 0.0
2017-Oct-24 14:57N 50°02' W 125°15'0 0.0
2017-Oct-24 14:30N 50°02' W 125°15'0 0.1
2017-Oct-24 13:56N 50°02' W 125°15'0 0.0
2017-Oct-24 13:26N 50°02' W 125°15'0 0.0
2017-Oct-24 12:50N 50°02' W 125°15'0 0.0
2017-Oct-24 12:26N 50°02' W 125°15'0 0.0
2017-Oct-24 11:56N 50°02' W 125°15'0 0.0
2017-Oct-24 11:20N 50°02' W 125°15'0 0.0
2017-Oct-24 10:50N 50°02' W 125°15'0 0.0
2017-Oct-24 10:26N 50°02' W 125°15'0 0.0
2017-Oct-24 09:23N 50°02' W 125°15'0 0.0
2017-Oct-24 08:59N 50°02' W 125°15'0 0.0
2017-Oct-24 08:23N 50°02' W 125°15'0 0.0
2017-Oct-24 07:53N 50°02' W 125°15'0 0.0
2017-Oct-24 07:29N 50°02' W 125°15'0 0.0
2017-Oct-24 06:59N 50°02' W 125°15'0 0.0
2017-Oct-24 06:08N 50°02' W 125°15'0 0.0
2017-Oct-24 05:38N 50°02' W 125°15'0 0.0
2017-Oct-24 04:41N 50°02' W 125°15'0 0.0
2017-Oct-24 04:26N 50°02' W 125°15'0 0.0
2017-Oct-24 03:17N 50°02' W 125°15'0 0.0
2017-Oct-24 02:53N 50°02' W 125°15'0 0.0
2017-Oct-24 02:26N 50°02' W 125°15'0 0.0
2017-Oct-24 01:59N 50°02' W 125°15'0 0.0
2017-Oct-24 01:26N 50°02' W 125°15'0 0.0
2017-Oct-23 23:02N 50°02' W 125°15'0 0.0
2017-Oct-23 22:56N 50°02' W 125°15'0 0.0
2017-Oct-23 22:29N 50°02' W 125°15'0 0.0
2017-Oct-23 21:50N 50°02' W 125°15'0 0.0
2017-Oct-23 21:23N 50°02' W 125°15'0 0.0
2017-Oct-23 20:56N 50°02' W 125°15'0 0.0
2017-Oct-23 20:11N 50°02' W 125°15'0 0.0
2017-Oct-23 19:56N 50°02' W 125°15'0 0.0
2017-Oct-23 19:26N 50°02' W 125°15'0 0.0
2017-Oct-23 18:29N 50°02' W 125°15'0 0.2
2017-Oct-23 18:00N 50°02' W 125°15'3 6.8
2017-Oct-23 17:31N 50°05' W 125°17'1 1.3
2017-Oct-23 16:23N 50°07' W 125°17'  

Dump ship's entire track history